Terminal Aerodrome Forecast
Issued by NWS Twin Cities, MN

Home | Current Version | Previous Version | Graphics & Text | Print | Product List | Glossary On
Versions: 1 2 3 4 5 6 7 8 9 10 11 12 13 14 15 16 17 18 19 20 21 22 23 24 25
000
FTUS43 KMPX 200900 AAB
TAFMSP
TAF AMD
KMSP 200952Z 2010/2112 VRB02KT 6SM BR VCSH BKN060 OVC100
     FM201100 00000KT 4SM BR SCT070 BKN250
     FM201300 07004KT P6SM SCT250
     FM202200 09006KT P6SM SCT050
     FM210700 11003KT P6SM VCSH SCT050 BKN100=

USA.gov is the U.S. government's official web portal to all federal, state and local government web resources and services.